sensor_id;sensor_type;location;lat;lon;timestamp;pressure;altitude;pressure_sealevel;temperature;humidity
80938;BME280;70395;51.382;7.074;2024-01-25T00:02:13;101525.91;;;10.69;59.64
80938;BME280;70395;51.382;7.074;2024-01-25T00:04:39;101515.91;;;10.71;59.73
80938;BME280;70395;51.382;7.074;2024-01-25T00:07:08;101507.97;;;10.69;59.70
80938;BME280;70395;51.382;7.074;2024-01-25T00:09:35;101515.19;;;10.69;59.74
80938;BME280;70395;51.382;7.074;2024-01-25T00:12:01;101517.88;;;10.69;59.90
80938;BME280;70395;51.382;7.074;2024-01-25T00:14:27;101520.53;;;10.69;59.52
80938;BME280;70395;51.382;7.074;2024-01-25T00:16:52;101520.53;;;10.69;59.66
80938;BME280;70395;51.382;7.074;2024-01-25T00:19:18;101517.00;;;10.68;59.65
80938;BME280;70395;51.382;7.074;2024-01-25T00:21:44;101524.31;;;10.66;59.84
80938;BME280;70395;51.382;7.074;2024-01-25T00:24:12;101524.31;;;10.66;59.83
80938;BME280;70395;51.382;7.074;2024-01-25T00:26:38;101524.06;;;10.69;59.81
80938;BME280;70395;51.382;7.074;2024-01-25T00:29:05;101522.22;;;10.70;59.65
80938;BME280;70395;51.382;7.074;2024-01-25T00:31:31;101515.91;;;10.71;59.52
80938;BME280;70395;51.382;7.074;2024-01-25T00:33:58;101528.47;;;10.70;59.74
80938;BME280;70395;51.382;7.074;2024-01-25T00:36:25;101526.75;;;10.69;59.88
80938;BME280;70395;51.382;7.074;2024-01-25T00:38:51;101541.00;;;10.70;60.07
80938;BME280;70395;51.382;7.074;2024-01-25T00:41:18;101534.78;;;10.69;59.69
80938;BME280;70395;51.382;7.074;2024-01-25T00:43:46;101533.59;;;10.74;59.65
80938;BME280;70395;51.382;7.074;2024-01-25T00:46:12;101538.84;;;10.75;59.75
80938;BME280;70395;51.382;7.074;2024-01-25T00:48:39;101535.44;;;10.73;59.94
80938;BME280;70395;51.382;7.074;2024-01-25T00:51:14;101531.16;;;10.70;59.89
80938;BME280;70395;51.382;7.074;2024-01-25T00:53:40;101524.91;;;10.70;59.93
80938;BME280;70395;51.382;7.074;2024-01-25T00:56:07;101532.09;;;10.69;60.16
80938;BME280;70395;51.382;7.074;2024-01-25T00:58:33;101540.06;;;10.71;59.85
80938;BME280;70395;51.382;7.074;2024-01-25T01:00:59;101535.66;;;10.70;59.92
80938;BME280;70395;51.382;7.074;2024-01-25T01:03:26;101539.41;;;10.67;59.84
80938;BME280;70395;51.382;7.074;2024-01-25T01:05:52;101537.94;;;10.63;59.88
80938;BME280;70395;51.382;7.074;2024-01-25T01:08:18;101526.56;;;10.59;60.00
80938;BME280;70395;51.382;7.074;2024-01-25T01:10:44;101527.06;;;10.53;60.28
80938;BME280;70395;51.382;7.074;2024-01-25T01:13:10;101531.00;;;10.47;60.02
80938;BME280;70395;51.382;7.074;2024-01-25T01:15:35;101520.97;;;10.38;60.07
80938;BME280;70395;51.382;7.074;2024-01-25T01:18:01;101521.53;;;10.30;60.08
80938;BME280;70395;51.382;7.074;2024-01-25T01:20:27;101523.97;;;10.22;60.30
80938;BME280;70395;51.382;7.074;2024-01-25T01:22:53;101521.84;;;10.14;60.27
80938;BME280;70395;51.382;7.074;2024-01-25T01:25:19;101532.03;;;10.09;60.37
80938;BME280;70395;51.382;7.074;2024-01-25T01:27:45;101536.13;;;10.01;60.36
80938;BME280;70395;51.382;7.074;2024-01-25T01:30:11;101550.72;;;9.97;60.51
80938;BME280;70395;51.382;7.074;2024-01-25T01:32:37;101542.78;;;9.96;60.44
80938;BME280;70395;51.382;7.074;2024-01-25T01:35:03;101544.72;;;9.94;60.47
80938;BME280;70395;51.382;7.074;2024-01-25T01:37:29;101546.03;;;9.88;60.55
80938;BME280;70395;51.382;7.074;2024-01-25T01:39:55;101545.59;;;9.81;60.81
80938;BME280;70395;51.382;7.074;2024-01-25T01:42:21;101554.09;;;9.75;60.72
80938;BME280;70395;51.382;7.074;2024-01-25T01:44:50;101550.13;;;9.67;60.99
80938;BME280;70395;51.382;7.074;2024-01-25T01:47:17;101552.28;;;9.62;60.68
80938;BME280;70395;51.382;7.074;2024-01-25T01:49:43;101557.97;;;9.57;60.92
80938;BME280;70395;51.382;7.074;2024-01-25T01:52:10;101568.03;;;9.54;61.24
80938;BME280;70395;51.382;7.074;2024-01-25T01:54:37;101570.06;;;9.50;61.20
80938;BME280;70395;51.382;7.074;2024-01-25T01:57:04;101560.31;;;9.49;61.49
80938;BME280;70395;51.382;7.074;2024-01-25T01:59:31;101559.38;;;9.50;61.22
80938;BME280;70395;51.382;7.074;2024-01-25T02:01:57;101568.03;;;9.54;61.20
80938;BME280;70395;51.382;7.074;2024-01-25T02:04:22;101574.97;;;9.56;61.33
80938;BME280;70395;51.382;7.074;2024-01-25T02:06:48;101568.47;;;9.61;61.54
80938;BME280;70395;51.382;7.074;2024-01-25T02:09:14;101576.25;;;9.64;61.36
80938;BME280;70395;51.382;7.074;2024-01-25T02:11:40;101575.09;;;9.68;61.16
80938;BME280;70395;51.382;7.074;2024-01-25T02:14:06;101582.81;;;9.73;61.41
80938;BME280;70395;51.382;7.074;2024-01-25T02:16:36;101587.09;;;9.75;61.27
80938;BME280;70395;51.382;7.074;2024-01-25T02:19:02;101582.38;;;9.79;61.25
80938;BME280;70395;51.382;7.074;2024-01-25T02:21:27;101588.25;;;9.84;61.12
80938;BME280;70395;51.382;7.074;2024-01-25T02:23:53;101594.25;;;9.88;61.37
80938;BME280;70395;51.382;7.074;2024-01-25T02:26:19;101594.03;;;9.91;61.05
80938;BME280;70395;51.382;7.074;2024-01-25T02:28:45;101601.84;;;9.94;61.03
80938;BME280;70395;51.382;7.074;2024-01-25T02:31:10;101608.94;;;9.95;61.11
80938;BME280;70395;51.382;7.074;2024-01-25T02:33:36;101609.69;;;9.97;61.11
80938;BME280;70395;51.382;7.074;2024-01-25T02:36:02;101614.91;;;9.99;61.11
80938;BME280;70395;51.382;7.074;2024-01-25T02:38:28;101610.31;;;10.01;61.29
80938;BME280;70395;51.382;7.074;2024-01-25T02:40:54;101609.44;;;10.00;61.26
80938;BME280;70395;51.382;7.074;2024-01-25T02:43:19;101618.25;;;10.02;61.05
80938;BME280;70395;51.382;7.074;2024-01-25T02:45:45;101617.25;;;10.03;61.09
80938;BME280;70395;51.382;7.074;2024-01-25T02:48:11;101607.53;;;10.02;61.26
80938;BME280;70395;51.382;7.074;2024-01-25T02:50:37;101605.81;;;10.01;61.22
80938;BME280;70395;51.382;7.074;2024-01-25T02:53:03;101607.75;;;9.99;61.04
80938;BME280;70395;51.382;7.074;2024-01-25T02:55:29;101609.56;;;9.99;61.11
80938;BME280;70395;51.382;7.074;2024-01-25T02:57:54;101602.59;;;9.96;61.37
80938;BME280;70395;51.382;7.074;2024-01-25T03:00:20;101602.81;;;9.93;61.13
80938;BME280;70395;51.382;7.074;2024-01-25T03:02:46;101604.00;;;9.89;61.33
80938;BME280;70395;51.382;7.074;2024-01-25T03:05:12;101613.09;;;9.86;61.48
80938;BME280;70395;51.382;7.074;2024-01-25T03:07:38;101616.13;;;9.82;61.51
80938;BME280;70395;51.382;7.074;2024-01-25T03:10:04;101615.38;;;9.79;61.38
80938;BME280;70395;51.382;7.074;2024-01-25T03:12:30;101620.72;;;9.79;61.43
80938;BME280;70395;51.382;7.074;2024-01-25T03:14:56;101628.09;;;9.76;61.23
80938;BME280;70395;51.382;7.074;2024-01-25T03:17:21;101620.31;;;9.73;61.37
80938;BME280;70395;51.382;7.074;2024-01-25T03:19:47;101616.03;;;9.70;61.35
80938;BME280;70395;51.382;7.074;2024-01-25T03:22:13;101618.03;;;9.66;61.64
80938;BME280;70395;51.382;7.074;2024-01-25T03:24:39;101615.59;;;9.63;61.23
80938;BME280;70395;51.382;7.074;2024-01-25T03:27:05;101625.53;;;9.61;61.29
80938;BME280;70395;51.382;7.074;2024-01-25T03:29:31;101632.09;;;9.57;61.27
80938;BME280;70395;51.382;7.074;2024-01-25T03:31:57;101626.09;;;9.53;61.43
80938;BME280;70395;51.382;7.074;2024-01-25T03:34:22;101620.09;;;9.50;61.27
80938;BME280;70395;51.382;7.074;2024-01-25T03:36:50;101636.47;;;9.45;61.47
80938;BME280;70395;51.382;7.074;2024-01-25T03:39:18;101627.16;;;9.38;61.51
80938;BME280;70395;51.382;7.074;2024-01-25T03:41:44;101629.38;;;9.31;61.48
80938;BME280;70395;51.382;7.074;2024-01-25T03:44:10;101624.56;;;9.23;61.42
80938;BME280;70395;51.382;7.074;2024-01-25T03:46:35;101627.66;;;9.17;61.80
80938;BME280;70395;51.382;7.074;2024-01-25T03:49:01;101631.69;;;9.09;61.79
80938;BME280;70395;51.382;7.074;2024-01-25T03:51:27;101633.91;;;9.03;61.83
80938;BME280;70395;51.382;7.074;2024-01-25T03:53:52;101638.81;;;8.96;61.91
80938;BME280;70395;51.382;7.074;2024-01-25T03:56:20;101640.09;;;8.90;61.90
80938;BME280;70395;51.382;7.074;2024-01-25T03:58:48;101643.94;;;8.86;61.85
80938;BME280;70395;51.382;7.074;2024-01-25T04:01:14;101651.41;;;8.81;61.71
80938;BME280;70395;51.382;7.074;2024-01-25T04:03:39;101647.41;;;8.73;62.35
80938;BME280;70395;51.382;7.074;2024-01-25T04:06:05;101640.84;;;8.64;62.22
80938;BME280;70395;51.382;7.074;2024-01-25T04:08:31;101636.75;;;8.59;62.55
80938;BME280;70395;51.382;7.074;2024-01-25T04:10:57;101642.66;;;8.49;63.09
80938;BME280;70395;51.382;7.074;2024-01-25T04:13:23;101640.50;;;8.41;62.88
80938;BME280;70395;51.382;7.074;2024-01-25T04:15:48;101643.47;;;8.37;63.11
80938;BME280;70395;51.382;7.074;2024-01-25T04:18:14;101642.88;;;8.31;63.34
80938;BME280;70395;51.382;7.074;2024-01-25T04:20:43;101650.25;;;8.28;63.18
80938;BME280;70395;51.382;7.074;2024-01-25T04:23:09;101653.13;;;8.25;63.32
80938;BME280;70395;51.382;7.074;2024-01-25T04:25:35;101651.50;;;8.22;63.48
80938;BME280;70395;51.382;7.074;2024-01-25T04:28:01;101651.78;;;8.17;63.66
80938;BME280;70395;51.382;7.074;2024-01-25T04:30:27;101661.72;;;8.15;63.58
80938;BME280;70395;51.382;7.074;2024-01-25T04:32:53;101662.66;;;8.14;63.65
80938;BME280;70395;51.382;7.074;2024-01-25T04:35:19;101670.03;;;8.10;63.80
80938;BME280;70395;51.382;7.074;2024-01-25T04:37:44;101667.44;;;8.09;63.80
80938;BME280;70395;51.382;7.074;2024-01-25T04:40:11;101666.66;;;8.07;63.88
80938;BME280;70395;51.382;7.074;2024-01-25T04:42:37;101666.03;;;8.03;63.87
80938;BME280;70395;51.382;7.074;2024-01-25T04:45:03;101659.06;;;8.00;64.18
80938;BME280;70395;51.382;7.074;2024-01-25T04:47:29;101657.44;;;7.98;64.22
80938;BME280;70395;51.382;7.074;2024-01-25T04:49:55;101659.41;;;7.94;64.18
80938;BME280;70395;51.382;7.074;2024-01-25T04:52:21;101664.97;;;7.91;64.30
80938;BME280;70395;51.382;7.074;2024-01-25T04:54:47;101659.81;;;7.88;64.41
80938;BME280;70395;51.382;7.074;2024-01-25T04:57:12;101661.78;;;7.84;64.62
80938;BME280;70395;51.382;7.074;2024-01-25T04:59:38;101658.66;;;7.77;64.41
80938;BME280;70395;51.382;7.074;2024-01-25T05:02:04;101662.38;;;7.75;64.61
80938;BME280;70395;51.382;7.074;2024-01-25T05:04:30;101660.66;;;7.74;64.72
80938;BME280;70395;51.382;7.074;2024-01-25T05:06:57;101661.72;;;7.71;64.70
80938;BME280;70395;51.382;7.074;2024-01-25T05:09:23;101653.88;;;7.68;64.82
80938;BME280;70395;51.382;7.074;2024-01-25T05:11:48;101647.00;;;7.64;64.71
80938;BME280;70395;51.382;7.074;2024-01-25T05:14:14;101651.66;;;7.60;65.07
80938;BME280;70395;51.382;7.074;2024-01-25T05:16:40;101656.34;;;7.57;65.04
80938;BME280;70395;51.382;7.074;2024-01-25T05:19:06;101649.38;;;7.54;65.00
80938;BME280;70395;51.382;7.074;2024-01-25T05:21:32;101646.72;;;7.54;65.10
80938;BME280;70395;51.382;7.074;2024-01-25T05:23:57;101645.75;;;7.55;65.18
80938;BME280;70395;51.382;7.074;2024-01-25T05:26:23;101649.28;;;7.55;65.02
80938;BME280;70395;51.382;7.074;2024-01-25T05:28:49;101654.63;;;7.55;65.18
80938;BME280;70395;51.382;7.074;2024-01-25T05:31:15;101651.94;;;7.55;65.12
80938;BME280;70395;51.382;7.074;2024-01-25T05:33:42;101644.81;;;7.56;65.05
80938;BME280;70395;51.382;7.074;2024-01-25T05:36:08;101654.50;;;7.57;65.14
80938;BME280;70395;51.382;7.074;2024-01-25T05:38:35;101650.16;;;7.56;65.03
80938;BME280;70395;51.382;7.074;2024-01-25T05:41:01;101650.16;;;7.56;65.03
80938;BME280;70395;51.382;7.074;2024-01-25T05:43:27;101648.41;;;7.55;65.00
80938;BME280;70395;51.382;7.074;2024-01-25T05:45:52;101651.28;;;7.52;65.07
80938;BME280;70395;51.382;7.074;2024-01-25T05:48:18;101651.53;;;7.47;64.88
80938;BME280;70395;51.382;7.074;2024-01-25T05:50:44;101653.53;;;7.43;65.13
80938;BME280;70395;51.382;7.074;2024-01-25T05:53:10;101655.53;;;7.40;65.16
80938;BME280;70395;51.382;7.074;2024-01-25T05:55:36;101657.44;;;7.38;65.35
80938;BME280;70395;51.382;7.074;2024-01-25T05:58:01;101662.09;;;7.34;65.37
80938;BME280;70395;51.382;7.074;2024-01-25T06:00:28;101663.16;;;7.31;65.27
80938;BME280;70395;51.382;7.074;2024-01-25T06:02:54;101665.13;;;7.28;65.25
80938;BME280;70395;51.382;7.074;2024-01-25T06:05:19;101668.81;;;7.25;65.37
80938;BME280;70395;51.382;7.074;2024-01-25T06:07:45;101666.53;;;7.19;65.18
80938;BME280;70395;51.382;7.074;2024-01-25T06:10:12;101666.81;;;7.14;65.39
80938;BME280;70395;51.382;7.074;2024-01-25T06:12:37;101665.34;;;7.08;65.59
80938;BME280;70395;51.382;7.074;2024-01-25T06:15:04;101672.69;;;7.05;65.65
80938;BME280;70395;51.382;7.074;2024-01-25T06:17:30;101666.59;;;7.03;65.64
80938;BME280;70395;51.382;7.074;2024-01-25T06:19:56;101666.66;;;7.01;65.75
80938;BME280;70395;51.382;7.074;2024-01-25T06:22:22;101669.41;;;7.00;65.91
80938;BME280;70395;51.382;7.074;2024-01-25T06:24:48;101674.84;;;6.98;66.16
80938;BME280;70395;51.382;7.074;2024-01-25T06:27:14;101676.66;;;6.97;66.18
80938;BME280;70395;51.382;7.074;2024-01-25T06:29:40;101680.19;;;6.98;65.99
80938;BME280;70395;51.382;7.074;2024-01-25T06:32:06;101681.88;;;6.99;66.11
80938;BME280;70395;51.382;7.074;2024-01-25T06:34:32;101681.88;;;6.99;66.07
80938;BME280;70395;51.382;7.074;2024-01-25T06:36:58;101683.88;;;6.95;66.20
80938;BME280;70395;51.382;7.074;2024-01-25T06:39:23;101683.94;;;6.94;66.32
80938;BME280;70395;51.382;7.074;2024-01-25T06:41:49;101683.28;;;6.90;66.45
80938;BME280;70395;51.382;7.074;2024-01-25T06:44:15;101670.97;;;6.87;66.30
80938;BME280;70395;51.382;7.074;2024-01-25T06:46:42;101691.53;;;6.85;66.53
80938;BME280;70395;51.382;7.074;2024-01-25T06:49:08;101689.91;;;6.83;66.70
80938;BME280;70395;51.382;7.074;2024-01-25T06:51:34;101695.31;;;6.81;66.68
80938;BME280;70395;51.382;7.074;2024-01-25T06:54:00;101706.06;;;6.80;66.72
80938;BME280;70395;51.382;7.074;2024-01-25T06:56:25;101708.75;;;6.80;66.84
80938;BME280;70395;51.382;7.074;2024-01-25T06:58:51;101722.16;;;6.78;66.82
80938;BME280;70395;51.382;7.074;2024-01-25T07:01:23;101730.22;;;6.76;66.99
80938;BME280;70395;51.382;7.074;2024-01-25T07:03:49;101722.16;;;6.78;66.95
80938;BME280;70395;51.382;7.074;2024-01-25T07:06:18;101724.63;;;6.81;67.26
80938;BME280;70395;51.382;7.074;2024-01-25T07:08:45;101722.84;;;6.82;67.26
80938;BME280;70395;51.382;7.074;2024-01-25T07:11:11;101724.47;;;6.84;67.28
80938;BME280;70395;51.382;7.074;2024-01-25T07:13:37;101727.16;;;6.84;67.42
80938;BME280;70395;51.382;7.074;2024-01-25T07:16:03;101739.53;;;6.85;67.54
80938;BME280;70395;51.382;7.074;2024-01-25T07:18:29;101729.66;;;6.87;67.43
80938;BME280;70395;51.382;7.074;2024-01-25T07:20:55;101729.66;;;6.87;67.59
80938;BME280;70395;51.382;7.074;2024-01-25T07:23:22;101740.31;;;6.87;67.72
80938;BME280;70395;51.382;7.074;2024-01-25T07:25:48;101734.03;;;6.89;67.77
80938;BME280;70395;51.382;7.074;2024-01-25T07:28:13;101725.09;;;6.90;67.75
80938;BME280;70395;51.382;7.074;2024-01-25T07:30:39;101719.75;;;6.90;67.66
80938;BME280;70395;51.382;7.074;2024-01-25T07:33:05;101724.22;;;6.89;67.91
80938;BME280;70395;51.382;7.074;2024-01-25T07:35:32;101726.78;;;6.91;67.74
80938;BME280;70395;51.382;7.074;2024-01-25T07:37:58;101736.53;;;6.92;67.86
80938;BME280;70395;51.382;7.074;2024-01-25T07:40:24;101731.03;;;6.95;67.82
80938;BME280;70395;51.382;7.074;2024-01-25T07:42:49;101738.84;;;6.98;67.81
80938;BME280;70395;51.382;7.074;2024-01-25T07:45:15;101739.53;;;7.02;67.73
80938;BME280;70395;51.382;7.074;2024-01-25T07:47:42;101738.59;;;7.03;67.98
80938;BME280;70395;51.382;7.074;2024-01-25T07:50:08;101733.94;;;7.06;67.90
80938;BME280;70395;51.382;7.074;2024-01-25T07:52:34;101746.22;;;7.09;67.96
80938;BME280;70395;51.382;7.074;2024-01-25T07:55:00;101747.72;;;7.15;67.84
80938;BME280;70395;51.382;7.074;2024-01-25T07:57:26;101751.03;;;7.18;67.87
80938;BME280;70395;51.382;7.074;2024-01-25T07:59:52;101748.81;;;7.27;67.74
80938;BME280;70395;51.382;7.074;2024-01-25T08:02:17;101748.44;;;7.33;67.67
80938;BME280;70395;51.382;7.074;2024-01-25T08:04:44;101751.59;;;7.40;67.51
80938;BME280;70395;51.382;7.074;2024-01-25T08:07:10;101760.13;;;7.47;67.29
80938;BME280;70395;51.382;7.074;2024-01-25T08:09:36;101764.25;;;7.52;67.20
80938;BME280;70395;51.382;7.074;2024-01-25T08:12:02;101762.09;;;7.59;67.34
80938;BME280;70395;51.382;7.074;2024-01-25T08:14:28;101760.84;;;7.65;67.32
80938;BME280;70395;51.382;7.074;2024-01-25T08:16:54;101756.97;;;7.71;67.01
80938;BME280;70395;51.382;7.074;2024-01-25T08:19:21;101762.03;;;7.75;67.15
80938;BME280;70395;51.382;7.074;2024-01-25T08:21:47;101759.94;;;7.81;67.13
80938;BME280;70395;51.382;7.074;2024-01-25T08:24:13;101762.34;;;7.85;66.88
80938;BME280;70395;51.382;7.074;2024-01-25T08:26:39;101772.66;;;7.92;66.98
80938;BME280;70395;51.382;7.074;2024-01-25T08:29:04;101771.53;;;7.96;66.86
80938;BME280;70395;51.382;7.074;2024-01-25T08:31:30;101770.38;;;8.00;66.87
80938;BME280;70395;51.382;7.074;2024-01-25T08:33:56;101763.72;;;8.07;66.71
80938;BME280;70395;51.382;7.074;2024-01-25T08:36:22;101760.75;;;8.12;66.63
80938;BME280;70395;51.382;7.074;2024-01-25T08:38:48;101762.28;;;8.16;66.64
80938;BME280;70395;51.382;7.074;2024-01-25T08:41:14;101765.53;;;8.21;66.54
80938;BME280;70395;51.382;7.074;2024-01-25T08:43:42;101759.91;;;8.26;66.39
80938;BME280;70395;51.382;7.074;2024-01-25T08:46:08;101747.06;;;8.33;66.37
80938;BME280;70395;51.382;7.074;2024-01-25T08:48:34;101739.22;;;8.44;66.24
80938;BME280;70395;51.382;7.074;2024-01-25T08:51:00;101750.19;;;8.54;66.15
80938;BME280;70395;51.382;7.074;2024-01-25T08:53:26;101747.91;;;8.63;65.93
80938;BME280;70395;51.382;7.074;2024-01-25T08:55:55;101752.69;;;8.72;65.78
80938;BME280;70395;51.382;7.074;2024-01-25T08:58:21;101754.84;;;8.80;65.56
80938;BME280;70395;51.382;7.074;2024-01-25T09:00:47;101755.22;;;8.88;65.49
80938;BME280;70395;51.382;7.074;2024-01-25T09:03:14;101758.28;;;8.97;65.37
80938;BME280;70395;51.382;7.074;2024-01-25T09:05:40;101752.31;;;9.06;65.09
80938;BME280;70395;51.382;7.074;2024-01-25T09:08:12;101750.97;;;9.14;64.96
80938;BME280;70395;51.382;7.074;2024-01-25T09:10:39;101746.81;;;9.22;64.97
80938;BME280;70395;51.382;7.074;2024-01-25T09:13:05;101754.78;;;9.37;64.68
80938;BME280;70395;51.382;7.074;2024-01-25T09:15:31;101748.84;;;9.60;64.46
80938;BME280;70395;51.382;7.074;2024-01-25T09:17:57;101750.72;;;9.85;64.15
80938;BME280;70395;51.382;7.074;2024-01-25T09:20:23;101749.56;;;10.02;63.64
80938;BME280;70395;51.382;7.074;2024-01-25T09:22:48;101756.22;;;10.10;63.36
80938;BME280;70395;51.382;7.074;2024-01-25T09:25:14;101765.75;;;10.14;63.20
80938;BME280;70395;51.382;7.074;2024-01-25T09:27:40;101763.69;;;10.18;63.13
80938;BME280;70395;51.382;7.074;2024-01-25T09:30:07;101761.47;;;10.24;63.18
80938;BME280;70395;51.382;7.074;2024-01-25T09:32:34;101763.69;;;10.31;63.05
80938;BME280;70395;51.382;7.074;2024-01-25T09:35:00;101771.09;;;10.40;62.76
80938;BME280;70395;51.382;7.074;2024-01-25T09:37:25;101783.00;;;10.49;62.71
80938;BME280;70395;51.382;7.074;2024-01-25T09:39:51;101790.44;;;10.58;62.42
80938;BME280;70395;51.382;7.074;2024-01-25T09:42:18;101791.59;;;10.67;62.38
80938;BME280;70395;51.382;7.074;2024-01-25T09:44:44;101791.91;;;10.76;62.22
80938;BME280;70395;51.382;7.074;2024-01-25T09:47:11;101794.88;;;10.84;61.87
80938;BME280;70395;51.382;7.074;2024-01-25T09:49:38;101797.13;;;10.90;61.59
80938;BME280;70395;51.382;7.074;2024-01-25T09:52:05;101788.88;;;10.94;61.35
80938;BME280;70395;51.382;7.074;2024-01-25T09:54:36;101778.81;;;11.09;61.23
80938;BME280;70395;51.382;7.074;2024-01-25T09:57:27;101773.91;;;11.27;60.93
80938;BME280;70395;51.382;7.074;2024-01-25T09:59:54;101774.47;;;11.44;60.81
80938;BME280;70395;51.382;7.074;2024-01-25T10:02:21;101776.91;;;11.71;60.47
80938;BME280;70395;51.382;7.074;2024-01-25T10:04:51;101783.78;;;11.87;59.69
80938;BME280;70395;51.382;7.074;2024-01-25T10:07:42;101795.81;;;12.06;59.71
80938;BME280;70395;51.382;7.074;2024-01-25T10:10:10;101793.81;;;12.33;59.44
80938;BME280;70395;51.382;7.074;2024-01-25T10:12:38;101800.91;;;12.68;59.47
80938;BME280;70395;51.382;7.074;2024-01-25T10:15:05;101793.50;;;13.16;58.65
80938;BME280;70395;51.382;7.074;2024-01-25T10:17:31;101799.88;;;13.60;57.32
80938;BME280;70395;51.382;7.074;2024-01-25T10:19:57;101798.78;;;13.84;56.61
80938;BME280;70395;51.382;7.074;2024-01-25T10:22:23;101798.28;;;13.90;56.05
80938;BME280;70395;51.382;7.074;2024-01-25T10:24:49;101797.28;;;13.91;55.76
80938;BME280;70395;51.382;7.074;2024-01-25T10:27:20;101800.03;;;13.80;54.95
80938;BME280;70395;51.382;7.074;2024-01-25T10:29:46;101796.59;;;13.56;55.29
80938;BME280;70395;51.382;7.074;2024-01-25T10:32:13;101801.78;;;13.36;55.48
80938;BME280;70395;51.382;7.074;2024-01-25T10:34:39;101804.88;;;13.20;55.89
80938;BME280;70395;51.382;7.074;2024-01-25T10:37:07;101785.81;;;13.12;55.83
80938;BME280;70395;51.382;7.074;2024-01-25T10:39:34;101780.09;;;13.05;55.85
80938;BME280;70395;51.382;7.074;2024-01-25T10:42:00;101778.50;;;13.02;55.82
80938;BME280;70395;51.382;7.074;2024-01-25T10:44:26;101762.53;;;13.11;55.97
80938;BME280;70395;51.382;7.074;2024-01-25T10:46:52;101773.66;;;13.17;55.80
80938;BME280;70395;51.382;7.074;2024-01-25T10:49:21;101765.81;;;13.26;55.27
80938;BME280;70395;51.382;7.074;2024-01-25T10:51:48;101764.53;;;13.42;55.45
80938;BME280;70395;51.382;7.074;2024-01-25T10:54:15;101753.56;;;13.66;54.99
80938;BME280;70395;51.382;7.074;2024-01-25T10:56:43;101755.78;;;13.82;54.37
80938;BME280;70395;51.382;7.074;2024-01-25T10:59:13;101746.44;;;13.87;54.25
80938;BME280;70395;51.382;7.074;2024-01-25T11:01:48;101740.66;;;13.91;53.91
80938;BME280;70395;51.382;7.074;2024-01-25T11:04:16;101734.78;;;14.07;53.76
80938;BME280;70395;51.382;7.074;2024-01-25T11:06:45;101737.03;;;14.34;53.41
80938;BME280;70395;51.382;7.074;2024-01-25T11:09:18;101738.56;;;14.68;53.16
80938;BME280;70395;51.382;7.074;2024-01-25T11:11:47;101736.22;;;14.94;52.43
80938;BME280;70395;51.382;7.074;2024-01-25T11:14:15;101730.03;;;15.24;51.69
80938;BME280;70395;51.382;7.074;2024-01-25T11:16:43;101725.59;;;15.52;51.31
80938;BME280;70395;51.382;7.074;2024-01-25T11:19:21;101719.13;;;15.83;51.09
80938;BME280;70395;51.382;7.074;2024-01-25T11:21:50;101715.84;;;15.99;49.61
80938;BME280;70395;51.382;7.074;2024-01-25T11:24:28;101717.69;;;16.09;50.18
80938;BME280;70395;51.382;7.074;2024-01-25T11:26:55;101717.03;;;16.25;49.70
80938;BME280;70395;51.382;7.074;2024-01-25T11:29:22;101717.72;;;16.27;48.87
80938;BME280;70395;51.382;7.074;2024-01-25T11:31:51;101716.53;;;16.12;48.70
80938;BME280;70395;51.382;7.074;2024-01-25T11:34:17;101718.22;;;16.03;48.91
80938;BME280;70395;51.382;7.074;2024-01-25T11:36:44;101701.31;;;15.91;48.50
80938;BME280;70395;51.382;7.074;2024-01-25T11:39:11;101697.66;;;15.82;48.64
80938;BME280;70395;51.382;7.074;2024-01-25T11:41:37;101693.84;;;15.74;48.43
80938;BME280;70395;51.382;7.074;2024-01-25T11:44:04;101690.44;;;15.62;48.98
80938;BME280;70395;51.382;7.074;2024-01-25T11:46:30;101677.91;;;15.61;48.52
80938;BME280;70395;51.382;7.074;2024-01-25T11:48:58;101678.34;;;15.67;48.65
80938;BME280;70395;51.382;7.074;2024-01-25T11:51:25;101681.00;;;15.86;48.57
80938;BME280;70395;51.382;7.074;2024-01-25T11:53:51;101668.81;;;16.10;48.09
80938;BME280;70395;51.382;7.074;2024-01-25T11:56:25;101673.44;;;16.28;47.73
80938;BME280;70395;51.382;7.074;2024-01-25T11:58:53;101677.78;;;16.68;47.78
80938;BME280;70395;51.382;7.074;2024-01-25T12:01:22;101668.13;;;17.02;46.48
80938;BME280;70395;51.382;7.074;2024-01-25T12:03:49;101661.31;;;17.16;46.59
80938;BME280;70395;51.382;7.074;2024-01-25T12:06:14;101665.50;;;17.10;45.98
80938;BME280;70395;51.382;7.074;2024-01-25T12:08:40;101676.72;;;16.79;45.51
80938;BME280;70395;51.382;7.074;2024-01-25T12:11:09;101670.03;;;16.26;46.07
80938;BME280;70395;51.382;7.074;2024-01-25T12:13:38;101649.00;;;15.72;45.95
80938;BME280;70395;51.382;7.074;2024-01-25T12:16:05;101638.03;;;15.15;46.77
80938;BME280;70395;51.382;7.074;2024-01-25T12:18:32;101635.84;;;14.69;47.73
80938;BME280;70395;51.382;7.074;2024-01-25T12:21:00;101646.41;;;14.31;48.41
80938;BME280;70395;51.382;7.074;2024-01-25T12:23:40;101636.09;;;13.95;48.88
80938;BME280;70395;51.382;7.074;2024-01-25T12:26:08;101652.56;;;13.70;49.40
80938;BME280;70395;51.382;7.074;2024-01-25T12:28:35;101635.53;;;13.48;49.70
80938;BME280;70395;51.382;7.074;2024-01-25T12:31:04;101632.84;;;13.27;50.40
80938;BME280;70395;51.382;7.074;2024-01-25T12:33:32;101629.88;;;13.09;50.56
80938;BME280;70395;51.382;7.074;2024-01-25T12:35:58;101624.66;;;12.95;51.31
80938;BME280;70395;51.382;7.074;2024-01-25T12:38:25;101633.50;;;12.86;51.47
80938;BME280;70395;51.382;7.074;2024-01-25T12:40:52;101638.56;;;12.79;51.49
80938;BME280;70395;51.382;7.074;2024-01-25T12:43:19;101642.59;;;12.73;51.85
80938;BME280;70395;51.382;7.074;2024-01-25T12:45:47;101638.84;;;12.65;51.67
80938;BME280;70395;51.382;7.074;2024-01-25T12:48:13;101633.63;;;12.52;52.23
80938;BME280;70395;51.382;7.074;2024-01-25T12:50:39;101636.34;;;12.40;52.42
80938;BME280;70395;51.382;7.074;2024-01-25T12:53:06;101636.84;;;12.34;52.71